KOXC/OXC METAR and TAF weather

Enter ICAO airport designator
Station Type Date Time Source
KOXC METAR 2019/04/25 15:51 UTC NOAA

KOXC 251551Z VRB05KT 8SM CLR 14/03 A2996 RMK AO2 SLP159 T01390028


Station Type Date Time Source
KOXC Decoded METAR 2019/04/25 15:51 UTC NOAA

Oxford, Waterbury-Oxford Airport, CT, United States (KOXC) 41-29N 073-08W
Apr 25, 2019 - 11:51 AM EDT / 2019.04.25 1551 UTC
Wind: Variable at 6 MPH (5 KT):0
Visibility: 8 mile(s):0
Sky conditions: clear
Temperature: 57.0 F (13.9 C)
Dew Point: 37.0 F (2.8 C)
Relative Humidity: 47%
Pressure (altimeter): 29.96 in. Hg (1014 hPa)
ob: KOXC 251551Z VRB05KT 8SM CLR 14/03 A2996 RMK AO2 SLP159 T01390028
cycle: 16

Station Type Date Time Source
KOXC TAF UTC NOAA

Error!

Example: see airport list